Time;durP1;ratioP1;P1;durP2;ratioP2;P2;SDS_P1;SDS_P2;PMS_P1;PMS_P2;Temp;Humidity;BMP_temperature;BMP_pressure;BME280_temperature;BME280_humidity;BME280_pressure;Samples;Min_cycle;Max_cycle;Signal;HPM_P1;HPM_P2
2023/01/20 00:01:24;;;;;;;0.10;0.10;;;;;;;2.58;72.38;101128.19;5058781;28;20080;-82
2023/01/20 00:03:53;;;;;;;0.20;0.20;;;;;;;2.57;72.17;101129.03;5069422;28;20040;-82
2023/01/20 00:06:19;;;;;;;0.10;0.10;;;;;;;2.56;72.54;101129.91;5066516;28;20094;-81
2023/01/20 00:08:50;;;;;;;0.10;0.10;;;;;;;2.57;72.67;101141.25;5059691;28;20562;-81
2023/01/20 00:11:16;;;;;;;0.20;0.20;;;;;;;2.59;71.98;101139.53;5053413;28;20033;-82
2023/01/20 00:13:42;;;;;;;0.10;0.10;;;;;;;2.58;72.56;101140.41;5040599;28;20485;-82
2023/01/20 00:16:10;;;;;;;0.95;0.95;;;;;;;2.66;72.79;101146.63;5039488;28;20025;-82
2023/01/20 00:18:38;;;;;;;0.13;0.13;;;;;;;2.71;73.02;101150.22;5039368;28;20037;-82
2023/01/20 00:21:07;;;;;;;0.43;0.43;;;;;;;2.74;73.44;101141.53;5051145;28;20036;-82
2023/01/20 00:23:34;;;;;;;0.20;0.20;;;;;;;2.73;73.53;101142.41;5046331;28;20090;-81
2023/01/20 00:26:04;;;;;;;0.20;0.20;;;;;;;2.79;73.27;101147.75;5046488;28;20033;-82
2023/01/20 00:28:30;;;;;;;0.20;0.20;;;;;;;2.79;73.01;101141.63;5046770;28;20442;-81
2023/01/20 00:30:56;;;;;;;0.10;0.10;;;;;;;2.83;73.55;101141.69;5049833;28;20120;-82
2023/01/20 00:33:23;;;;;;;0.20;0.20;;;;;;;2.80;72.91;101149.47;5051868;28;20029;-82
2023/01/20 00:35:49;;;;;;;0.15;0.15;;;;;;;2.82;73.15;101150.41;5048077;28;20083;-82
2023/01/20 00:38:16;;;;;;;0.73;0.73;;;;;;;2.86;73.06;101148.72;5049177;28;20026;-82
2023/01/20 00:40:42;;;;;;;0.60;0.60;;;;;;;2.89;73.59;101149.66;5039350;28;20038;-79
2023/01/20 00:43:10;;;;;;;0.65;0.65;;;;;;;2.92;73.52;101154.94;5047548;28;20128;-79
2023/01/20 00:45:36;;;;;;;0.40;0.40;;;;;;;2.95;73.65;101158.47;5046667;28;20079;-79
2023/01/20 00:48:03;;;;;;;0.10;0.10;;;;;;;2.98;73.31;101158.50;5048544;28;20064;-80
2023/01/20 00:50:29;;;;;;;0.57;0.57;;;;;;;2.99;72.83;101149.78;5054165;28;20493;-78
2023/01/20 00:52:55;;;;;;;0.10;0.10;;;;;;;3.03;73.38;101156.84;5040355;28;20034;-80
2023/01/20 00:55:21;;;;;;;0.30;0.30;;;;;;;3.01;73.24;101153.31;5050419;28;20227;-79
2023/01/20 00:57:47;;;;;;;0.40;0.40;;;;;;;3.02;73.46;101150.72;5048229;28;20104;-80
2023/01/20 01:00:13;;;;;;;0.20;0.20;;;;;;;3.02;73.51;101149.84;5046850;28;20033;-79
2023/01/20 01:02:40;;;;;;;1.45;1.45;;;;;;;3.02;73.81;101157.72;5053031;28;20094;-80
2023/01/20 01:05:06;;;;;;;0.32;0.32;;;;;;;3.02;73.34;101155.09;5047030;28;20603;-78
2023/01/20 01:07:32;;;;;;;0.10;0.10;;;;;;;3.02;73.18;101161.19;5043857;28;20048;-80
2023/01/20 01:09:58;;;;;;;0.20;0.20;;;;;;;2.99;73.54;101149.78;5039804;28;20029;-81
2023/01/20 01:12:24;;;;;;;0.20;0.20;;;;;;;3.00;72.94;101160.28;5049580;28;20021;-81
2023/01/20 01:14:50;;;;;;;0.20;0.20;;;;;;;2.97;73.46;101162.00;5049744;28;20551;-80
2023/01/20 01:17:16;;;;;;;0.30;0.30;;;;;;;2.96;73.37;101170.69;5046151;28;20033;-81
2023/01/20 01:19:42;;;;;;;0.20;0.20;;;;;;;2.90;73.23;101180.22;5047616;28;20057;-80
2023/01/20 01:22:09;;;;;;;1.13;1.13;;;;;;;2.87;73.42;101166.19;5050147;28;20080;-81
2023/01/20 01:24:35;;;;;;;0.20;0.20;;;;;;;2.86;73.12;101172.28;5064738;28;20028;-79
2023/01/20 01:27:03;;;;;;;0.20;0.20;;;;;;;2.84;72.73;101172.25;5070675;28;20032;-79
2023/01/20 01:29:29;;;;;;;0.10;0.10;;;;;;;2.78;73.02;101176.47;5074166;28;20084;-79
2023/01/20 01:31:55;;;;;;;0.20;0.20;;;;;;;2.74;72.63;101179.06;5075683;28;20096;-79
2023/01/20 01:34:22;;;;;;;6.22;4.10;;;;;;;2.69;73.31;101177.19;5077117;28;20086;-79
2023/01/20 01:36:48;;;;;;;0.25;0.25;;;;;;;2.66;73.26;101178.03;5077125;28;20071;-79
2023/01/20 01:39:14;;;;;;;0.30;0.30;;;;;;;2.63;72.51;101185.84;5070093;28;20020;-79
2023/01/20 01:41:40;;;;;;;0.15;0.15;;;;;;;2.56;73.05;101186.56;5059344;28;20032;-81
2023/01/20 01:46:55;;;;;;;0.10;0.10;;;;;;;2.51;73.23;101186.47;5099047;27;20455;-80
2023/01/20 01:52:13;;;;;;;0.15;0.15;;;;;;;2.47;73.11;101189.00;5171685;27;20347;-79
2023/01/20 01:54:44;;;;;;;0.40;0.40;;;;;;;2.48;72.96;101180.31;5134385;27;20028;-80
2023/01/20 01:57:10;;;;;;;0.85;0.85;;;;;;;2.44;72.91;101192.44;5115692;28;20031;-81
2023/01/20 01:59:37;;;;;;;0.10;0.10;;;;;;;2.40;73.23;101186.28;5113462;28;20536;-81
2023/01/20 02:02:04;;;;;;;0.20;0.20;;;;;;;2.41;73.41;101182.81;5113115;28;20085;-80
2023/01/20 02:04:32;;;;;;;0.20;0.20;;;;;;;2.39;73.12;101188.88;5112060;28;20039;-80
2023/01/20 02:07:06;;;;;;;0.52;0.52;;;;;;;2.41;72.93;101187.16;5112609;28;20107;-80
2023/01/20 02:09:34;;;;;;;2.08;0.82;;;;;;;2.37;73.36;101195.81;5106814;28;20035;-81
2023/01/20 02:12:05;;;;;;;0.22;0.22;;;;;;;2.34;73.29;101194.00;5112542;28;20032;-80
2023/01/20 02:14:36;;;;;;;0.15;0.15;;;;;;;2.32;73.47;101192.22;5111039;28;20098;-81
2023/01/20 02:17:29;;;;;;;0.20;0.20;;;;;;;2.33;73.32;101188.75;5107663;28;20028;-80
2023/01/20 02:20:35;;;;;;;0.73;0.73;;;;;;;2.34;73.64;101187.91;5099135;28;20024;-80
2023/01/20 02:26:14;;;;;;;0.98;0.90;;;;;;;2.32;73.48;101181.75;5086776;27;21587;-81
2023/01/20 02:32:08;;;;;;;0.10;0.10;;;;;;;2.35;73.83;101182.69;5102370;27;20415;-80
2023/01/20 02:34:45;;;;;;;0.15;0.15;;;;;;;2.35;73.43;101182.69;5070735;28;20024;-79
2023/01/20 02:43:04;;;;;;;2.33;2.17;;;;;;;2.36;72.93;101188.81;5099680;27;20442;-80
2023/01/20 02:45:42;;;;;;;0.20;0.20;;;;;;;2.38;73.42;101188.00;5078106;28;20082;-80
2023/01/20 02:48:35;;;;;;;0.13;0.13;;;;;;;2.42;73.43;101189.81;5068032;28;20035;-79
2023/01/20 02:51:24;;;;;;;0.20;0.20;;;;;;;2.46;73.56;101185.53;5068674;28;20029;-80
2023/01/20 02:53:54;;;;;;;0.20;0.20;;;;;;;2.38;73.72;101188.00;5064144;28;20085;-79
2023/01/20 02:56:26;;;;;;;0.10;0.10;;;;;;;2.39;73.93;101189.75;5067675;28;20115;-80
2023/01/20 02:58:56;;;;;;;0.20;0.20;;;;;;;2.40;73.89;101191.50;5060752;28;20044;-80
2023/01/20 03:01:30;;;;;;;0.10;0.10;;;;;;;2.41;73.95;101185.41;5065327;28;20404;-80
2023/01/20 03:04:00;;;;;;;0.20;0.20;;;;;;;2.41;73.66;101185.41;5069319;28;20029;-80
2023/01/20 03:06:32;;;;;;;0.20;0.20;;;;;;;2.40;74.01;101181.03;5068959;28;20507;-81
2023/01/20 03:09:02;;;;;;;0.20;0.20;;;;;;;2.42;73.86;101179.34;5065591;28;20032;-80
2023/01/20 03:11:32;;;;;;;2.40;2.22;;;;;;;2.44;73.92;101184.59;5075570;28;20039;-79
2023/01/20 03:14:08;;;;;;;0.10;0.10;;;;;;;2.51;73.92;101199.56;5068545;28;20057;-80
2023/01/20 03:16:34;;;;;;;0.20;0.20;;;;;;;2.49;73.91;101182.94;5062215;28;20032;-80
2023/01/20 03:19:00;;;;;;;0.20;0.20;;;;;;;2.52;74.29;101177.78;5062176;28;20033;-81
2023/01/20 03:21:26;;;;;;;0.20;0.20;;;;;;;2.52;74.48;101180.41;5066063;28;20076;-80
2023/01/20 03:23:58;;;;;;;0.10;0.10;;;;;;;2.57;73.78;101181.38;5062387;28;20052;-80
2023/01/20 03:26:24;;;;;;;1.23;1.23;;;;;;;2.58;74.43;101184.88;5058345;28;20029;-80
2023/01/20 03:28:51;;;;;;;0.10;0.10;;;;;;;2.61;74.25;101186.66;5059327;28;20037;-80
2023/01/20 03:31:22;;;;;;;0.20;0.20;;;;;;;2.67;73.95;101186.78;5056926;28;20039;-80
2023/01/20 03:33:51;;;;;;;0.60;0.60;;;;;;;2.66;73.55;101192.88;5057107;28;20029;-79
2023/01/20 03:36:20;;;;;;;0.20;0.20;;;;;;;2.65;74.00;101184.13;5058722;28;20056;-80
2023/01/20 03:38:46;;;;;;;0.20;0.20;;;;;;;2.68;73.74;101193.75;5058169;28;20039;-80
2023/01/20 03:41:36;;;;;;;2.70;2.47;;;;;;;2.77;73.80;101185.19;5057590;28;20395;-80
2023/01/20 03:44:42;;;;;;;0.20;0.20;;;;;;;2.77;73.53;101180.84;5055141;28;20037;-80
2023/01/20 03:50:40;;;;;;;0.10;0.10;;;;;;;2.75;74.05;101182.53;5087530;27;20442;-80
2023/01/20 03:56:12;;;;;;;0.30;0.30;;;;;;;2.77;73.75;101191.31;5087380;27;20449;-80
2023/01/20 03:58:42;;;;;;;0.30;0.30;;;;;;;2.75;73.90;101191.28;5068678;28;20116;-80
2023/01/20 04:01:11;;;;;;;0.15;0.15;;;;;;;2.75;73.90;101183.44;5068975;28;20036;-80
2023/01/20 04:03:42;;;;;;;0.10;0.10;;;;;;;2.74;73.95;101186.00;5069922;28;20453;-80
2023/01/20 04:06:12;;;;;;;0.35;0.35;;;;;;;2.73;73.73;101194.75;5068877;28;20028;-80
2023/01/20 04:08:44;;;;;;;1.30;0.82;;;;;;;2.73;74.02;101194.75;5062696;28;20041;-79
2023/01/20 04:11:10;;;;;;;0.20;0.20;;;;;;;2.74;73.67;101196.47;5069083;28;20043;-80
2023/01/20 04:13:37;;;;;;;0.15;0.15;;;;;;;2.75;73.89;101201.75;5068151;28;20032;-80
2023/01/20 04:16:11;;;;;;;8.10;1.05;;;;;;;2.81;73.67;101200.09;5068502;28;20060;-80
2023/01/20 04:18:42;;;;;;;0.17;0.17;;;;;;;2.81;74.00;101197.50;5068662;28;20119;-80
2023/01/20 04:21:13;;;;;;;0.47;0.47;;;;;;;2.83;73.65;101195.75;5070397;28;20472;-80
2023/01/20 04:23:44;;;;;;;0.30;0.30;;;;;;;2.85;73.91;101187.06;5064465;28;20111;-80
2023/01/20 04:26:10;;;;;;;1.15;1.13;;;;;;;2.81;73.89;101187.88;5066294;28;20035;-80
2023/01/20 04:28:36;;;;;;;0.13;0.13;;;;;;;2.87;74.15;101187.13;5069788;28;20032;-80
2023/01/20 04:31:02;;;;;;;0.30;0.30;;;;;;;2.90;73.55;101193.31;5068563;28;20035;-81
2023/01/20 04:33:28;;;;;;;0.10;0.10;;;;;;;2.92;73.93;101198.56;5069736;28;20029;-80
2023/01/20 04:35:54;;;;;;;0.65;0.65;;;;;;;2.94;73.44;101198.56;5069454;28;20048;-81
2023/01/20 04:38:20;;;;;;;0.63;0.63;;;;;;;2.92;73.82;101207.28;5069857;28;20055;-80
2023/01/20 04:40:46;;;;;;;0.20;0.20;;;;;;;2.95;73.65;101205.56;5064838;28;20037;-80
2023/01/20 04:43:12;;;;;;;1.73;0.93;;;;;;;2.95;73.70;101201.22;5068473;28;20029;-81
2023/01/20 04:45:40;;;;;;;2.75;2.65;;;;;;;2.98;73.66;101205.59;5064845;28;20025;-80
2023/01/20 04:48:13;;;;;;;0.20;0.20;;;;;;;3.00;73.90;101210.00;5070320;28;20033;-81
2023/01/20 04:50:40;;;;;;;0.68;0.68;;;;;;;2.94;74.06;101222.13;5061492;28;20036;-79
2023/01/20 04:53:09;;;;;;;0.20;0.20;;;;;;;2.98;73.94;101216.09;5068760;28;20025;-79
2023/01/20 04:55:36;;;;;;;1.95;1.85;;;;;;;2.95;73.90;101216.91;5066015;28;20040;-79
2023/01/20 04:58:02;;;;;;;0.10;0.10;;;;;;;2.95;73.85;101216.03;5069167;28;20039;-79
2023/01/20 05:00:28;;;;;;;1.27;0.88;;;;;;;2.97;73.98;101219.59;5068355;28;20035;-79
2023/01/20 05:02:57;;;;;;;0.20;0.20;;;;;;;2.99;73.58;101207.38;5067474;28;20029;-80
2023/01/20 05:05:23;;;;;;;0.13;0.13;;;;;;;2.97;73.24;101211.72;5062177;28;20044;-79
2023/01/20 05:07:53;;;;;;;0.20;0.20;;;;;;;2.98;73.55;101210.84;5055230;28;20028;-79
2023/01/20 05:10:20;;;;;;;0.47;0.47;;;;;;;2.97;73.20;101219.59;5050954;28;20043;-79
2023/01/20 05:12:46;;;;;;;0.43;0.43;;;;;;;3.00;73.72;101214.38;5055056;28;20450;-79
2023/01/20 05:15:12;;;;;;;1.05;0.98;;;;;;;2.96;73.57;101209.97;5054620;28;21146;-79
2023/01/20 05:17:38;;;;;;;0.20;0.20;;;;;;;2.99;73.37;101223.09;5055326;28;20033;-80
2023/01/20 05:20:04;;;;;;;1.38;1.27;;;;;;;2.97;73.64;101220.44;5052335;28;20025;-80
2023/01/20 05:22:32;;;;;;;0.20;0.20;;;;;;;3.04;73.14;101229.28;5055636;28;20025;-81
2023/01/20 05:24:58;;;;;;;0.45;0.45;;;;;;;3.07;73.36;101237.19;5054392;28;20173;-81
2023/01/20 05:27:25;;;;;;;0.73;0.73;;;;;;;3.07;73.49;101242.44;5053705;28;20542;-81
2023/01/20 05:29:51;;;;;;;0.17;0.17;;;;;;;3.07;73.42;101231.97;5053988;28;20033;-81
2023/01/20 05:32:17;;;;;;;0.20;0.20;;;;;;;3.00;73.17;101227.47;5053702;28;20033;-81
2023/01/20 05:34:43;;;;;;;0.95;0.95;;;;;;;2.97;73.11;101235.28;5055581;28;20029;-81
2023/01/20 05:37:09;;;;;;;0.10;0.10;;;;;;;3.00;73.16;101230.09;5062463;28;20041;-81
2023/01/20 05:39:35;;;;;;;0.50;0.50;;;;;;;2.97;73.08;101236.16;5051348;28;20045;-81
2023/01/20 05:42:01;;;;;;;0.20;0.20;;;;;;;2.95;73.23;101236.97;5053160;28;20056;-81
2023/01/20 05:44:27;;;;;;;0.10;0.10;;;;;;;2.97;73.00;101232.66;5055509;28;20154;-81
2023/01/20 05:46:53;;;;;;;0.50;0.50;;;;;;;2.96;73.47;101237.00;5050684;28;20029;-82
2023/01/20 05:49:19;;;;;;;0.55;0.55;;;;;;;2.92;73.21;101241.31;5055882;28;20029;-81
2023/01/20 05:51:45;;;;;;;1.00;0.90;;;;;;;2.90;73.44;101240.41;5056230;28;20028;-82
2023/01/20 05:54:11;;;;;;;0.10;0.10;;;;;;;2.94;73.32;101245.69;5055588;28;20040;-82
2023/01/20 05:56:37;;;;;;;0.22;0.22;;;;;;;2.90;73.16;101248.25;5057443;28;20037;-82
2023/01/20 05:59:05;;;;;;;0.20;0.20;;;;;;;2.93;73.49;101250.06;5055637;28;20086;-81
2023/01/20 06:01:31;;;;;;;0.20;0.20;;;;;;;2.90;73.46;101250.88;5049676;28;20032;-81
2023/01/20 06:03:57;;;;;;;1.38;1.33;;;;;;;2.88;73.17;101249.09;5056927;28;20124;-81
2023/01/20 06:06:23;;;;;;;0.20;0.20;;;;;;;2.94;73.28;101245.69;5055702;28;20052;-81
2023/01/20 06:08:51;;;;;;;0.35;0.35;;;;;;;2.91;73.50;101244.75;5051017;28;20116;-80
2023/01/20 06:11:18;;;;;;;0.20;0.20;;;;;;;2.93;73.54;101236.97;5056538;28;20033;-81
2023/01/20 06:13:47;;;;;;;0.20;0.20;;;;;;;2.95;73.53;101240.47;5056443;28;20021;-81
2023/01/20 06:16:13;;;;;;;0.25;0.25;;;;;;;2.95;73.89;101242.22;5055603;28;20043;-81
2023/01/20 06:18:39;;;;;;;2.17;2.05;;;;;;;2.95;73.26;101243.09;5050363;28;20033;-80
2023/01/20 06:21:05;;;;;;;0.15;0.15;;;;;;;2.96;73.51;101238.75;5048977;28;20021;-81
2023/01/20 06:23:32;;;;;;;0.55;0.55;;;;;;;2.95;73.60;101244.84;5048456;28;20493;-81
2023/01/20 06:26:01;;;;;;;0.28;0.28;;;;;;;2.92;73.88;101238.69;5053177;28;20100;-81
2023/01/20 06:28:27;;;;;;;0.32;0.32;;;;;;;2.91;73.68;101241.28;5060905;28;20035;-80
2023/01/20 06:31:02;;;;;;;2.38;1.85;;;;;;;2.94;73.83;101243.97;5065833;28;20032;-81
2023/01/20 06:33:28;;;;;;;0.40;0.40;;;;;;;2.90;73.64;101243.03;5055466;28;20039;-81
2023/01/20 06:35:56;;;;;;;0.20;0.20;;;;;;;2.94;73.64;101243.97;5054138;28;20051;-82
2023/01/20 06:38:24;;;;;;;0.20;0.20;;;;;;;2.95;73.66;101237.84;5051603;28;20031;-81
2023/01/20 06:40:54;;;;;;;0.22;0.22;;;;;;;2.98;73.83;101237.91;5047256;28;20057;-82
2023/01/20 06:43:20;;;;;;;0.30;0.30;;;;;;;3.00;73.76;101240.56;5056479;28;20485;-81
2023/01/20 06:45:46;;;;;;;2.00;1.85;;;;;;;2.98;73.83;101242.25;5060669;28;20040;-81
2023/01/20 06:48:12;;;;;;;0.10;0.10;;;;;;;2.98;73.45;101244.88;5063871;28;20037;-81
2023/01/20 06:50:38;;;;;;;0.20;0.20;;;;;;;2.95;73.73;101242.22;5054444;28;20041;-81
2023/01/20 06:53:04;;;;;;;0.20;0.20;;;;;;;2.96;73.78;101246.59;5055246;28;20025;-82
2023/01/20 06:55:31;;;;;;;0.10;0.10;;;;;;;2.93;74.07;101244.81;5052887;28;20056;-82
2023/01/20 06:57:57;;;;;;;0.85;0.85;;;;;;;2.96;73.83;101249.22;5056565;28;20104;-81
2023/01/20 07:00:23;;;;;;;0.20;0.20;;;;;;;2.94;73.82;101250.91;5054674;28;20069;-80
2023/01/20 07:02:49;;;;;;;0.10;0.10;;;;;;;2.91;73.66;101257.84;5055683;28;20079;-81
2023/01/20 07:05:15;;;;;;;0.73;0.73;;;;;;;2.89;73.77;101264.81;5055272;28;20032;-81
2023/01/20 07:07:45;;;;;;;0.10;0.10;;;;;;;2.87;73.47;101271.75;5052662;28;20045;-81
2023/01/20 07:10:12;;;;;;;1.95;1.85;;;;;;;2.84;73.80;101271.72;5054027;28;20028;-80
2023/01/20 07:12:38;;;;;;;0.20;0.20;;;;;;;2.85;73.95;101267.34;5055541;28;20059;-81
2023/01/20 07:15:04;;;;;;;0.75;0.75;;;;;;;2.86;73.83;101264.75;5050833;28;20419;-81
2023/01/20 07:17:30;;;;;;;0.10;0.10;;;;;;;2.91;73.62;101272.69;5048567;28;20116;-82
2023/01/20 07:19:56;;;;;;;0.10;0.10;;;;;;;2.93;73.59;101278.84;5050313;28;20052;-79
2023/01/20 07:22:22;;;;;;;0.20;0.20;;;;;;;2.95;73.81;101284.09;5048886;28;20056;-79
2023/01/20 07:24:48;;;;;;;0.20;0.20;;;;;;;2.97;74.04;101274.56;5049455;28;20425;-81
2023/01/20 07:27:15;;;;;;;0.50;0.50;;;;;;;3.01;73.50;101278.97;5048891;28;20043;-81
2023/01/20 07:29:41;;;;;;;0.25;0.25;;;;;;;3.03;73.86;101293.84;5051153;28;20452;-81
2023/01/20 07:32:07;;;;;;;0.20;0.20;;;;;;;3.04;73.48;101293.00;5054179;28;20059;-81
2023/01/20 07:34:33;;;;;;;0.10;0.10;;;;;;;3.03;73.42;101288.63;5054463;28;20436;-81
2023/01/20 07:37:01;;;;;;;0.17;0.17;;;;;;;3.04;73.40;101305.19;5051948;28;20492;-82
2023/01/20 07:39:27;;;;;;;0.20;0.20;;;;;;;3.02;73.78;101296.47;5053327;28;20028;-81
2023/01/20 07:41:53;;;;;;;0.20;0.20;;;;;;;3.03;73.90;101298.22;5054459;28;20469;-81
2023/01/20 07:44:19;;;;;;;0.65;0.65;;;;;;;3.04;73.76;101300.88;5049459;28;20504;-81
2023/01/20 07:46:45;;;;;;;0.60;0.60;;;;;;;3.03;73.53;101298.22;5052388;28;20060;-81
2023/01/20 07:49:12;;;;;;;0.40;0.40;;;;;;;3.00;73.41;101293.78;5054135;28;20032;-81
2023/01/20 07:51:38;;;;;;;0.10;0.10;;;;;;;3.04;73.62;101294.72;5047627;28;20032;-81
2023/01/20 07:54:05;;;;;;;0.28;0.28;;;;;;;3.04;73.84;101290.38;5053679;28;20484;-82
2023/01/20 07:56:31;;;;;;;0.10;0.10;;;;;;;3.06;73.49;101298.25;5041302;28;20034;-82
2023/01/20 07:58:57;;;;;;;0.13;0.13;;;;;;;3.06;73.80;101298.25;5036491;28;20025;-81
2023/01/20 08:01:27;;;;;;;0.22;0.22;;;;;;;3.12;73.75;101297.50;5035790;28;20037;-81
2023/01/20 08:03:54;;;;;;;0.20;0.20;;;;;;;3.12;73.95;101302.75;5037622;28;20028;-82
2023/01/20 08:06:22;;;;;;;0.10;0.10;;;;;;;3.11;73.87;101307.06;5038498;28;20481;-82
2023/01/20 08:08:49;;;;;;;0.17;0.17;;;;;;;3.09;73.33;101311.44;5034340;28;20374;-81
2023/01/20 08:11:16;;;;;;;0.32;0.32;;;;;;;3.16;73.47;101321.13;5037277;28;20029;-82
2023/01/20 08:13:43;;;;;;;0.30;0.30;;;;;;;3.15;73.93;101318.50;5036832;28;20112;-81
2023/01/20 08:16:11;;;;;;;0.30;0.30;;;;;;;3.13;73.49;101321.09;5036814;28;20029;-82
2023/01/20 08:18:38;;;;;;;0.10;0.10;;;;;;;3.14;73.63;101317.63;5051533;28;20107;-81
2023/01/20 08:21:07;;;;;;;0.10;0.10;;;;;;;3.14;73.69;101311.50;5053057;28;20040;-82
2023/01/20 08:23:34;;;;;;;0.93;0.90;;;;;;;3.10;73.53;101310.53;5053489;28;20029;-82
2023/01/20 08:26:04;;;;;;;0.20;0.20;;;;;;;3.07;73.69;101310.50;5052671;28;20057;-82
2023/01/20 08:28:31;;;;;;;0.10;0.10;;;;;;;3.08;73.88;101312.28;5052312;28;20111;-82
2023/01/20 08:31:15;;;;;;;0.30;0.30;;;;;;;3.14;74.10;101317.63;5052229;28;20029;-82
2023/01/20 08:33:42;;;;;;;0.22;0.22;;;;;;;3.11;73.84;101322.78;5050387;28;20036;-82
2023/01/20 08:36:11;;;;;;;0.17;0.17;;;;;;;3.09;73.76;101329.75;5051489;28;20048;-82
2023/01/20 08:38:37;;;;;;;1.05;1.05;;;;;;;3.13;73.50;101344.66;5052008;28;20029;-80
2023/01/20 08:41:09;;;;;;;0.32;0.32;;;;;;;3.18;73.42;101348.25;5052908;28;20104;-82
2023/01/20 08:43:35;;;;;;;4.80;1.10;;;;;;;3.17;74.01;101364.78;5057806;28;20029;-83
2023/01/20 08:46:04;;;;;;;0.10;0.10;;;;;;;3.12;73.57;101374.31;5055888;28;20032;-83
2023/01/20 08:48:30;;;;;;;0.77;0.77;;;;;;;3.14;73.51;101377.84;5071707;28;20031;-80
2023/01/20 08:50:56;;;;;;;0.52;0.52;;;;;;;3.07;73.69;101374.22;5063600;28;20033;-82
2023/01/20 08:53:22;;;;;;;0.13;0.13;;;;;;;3.03;73.36;101374.16;5058773;28;20028;-83
2023/01/20 08:56:03;;;;;;;0.32;0.32;;;;;;;3.05;73.50;101369.81;5058442;28;20060;-84
2023/01/20 08:58:30;;;;;;;0.10;0.10;;;;;;;2.94;73.00;101372.22;5059131;28;20033;-83
2023/01/20 09:00:56;;;;;;;0.20;0.20;;;;;;;2.88;73.34;101370.34;5060429;28;20021;-83
2023/01/20 09:03:23;;;;;;;0.10;0.10;;;;;;;2.87;73.71;101365.09;5060629;28;20498;-83
2023/01/20 09:05:49;;;;;;;0.10;0.10;;;;;;;2.85;73.63;101370.28;5060594;28;20044;-83
2023/01/20 09:08:16;;;;;;;0.17;0.17;;;;;;;2.78;73.85;101360.56;5062352;28;20032;-83
2023/01/20 09:10:43;;;;;;;1.75;1.65;;;;;;;2.83;73.79;101365.88;5059166;28;20488;-83
2023/01/20 09:13:09;;;;;;;0.20;0.20;;;;;;;2.84;73.47;101365.91;5061436;28;20032;-84
2023/01/20 09:15:35;;;;;;;0.10;0.10;;;;;;;2.82;73.91;101367.63;5058043;28;20513;-83
2023/01/20 09:18:01;;;;;;;0.15;0.15;;;;;;;2.80;73.98;101374.53;5058448;28;20062;-81
2023/01/20 09:20:29;;;;;;;0.20;0.20;;;;;;;2.85;73.90;101383.38;5057398;28;20033;-83
2023/01/20 09:22:59;;;;;;;0.85;0.85;;;;;;;2.89;73.82;101384.31;5057693;28;20021;-83
2023/01/20 09:25:25;;;;;;;0.10;0.10;;;;;;;2.94;73.91;101381.78;5059802;28;20041;-85
2023/01/20 09:27:51;;;;;;;0.20;0.20;;;;;;;2.96;73.92;101380.09;5053000;28;20595;-83
2023/01/20 09:30:17;;;;;;;0.10;0.10;;;;;;;3.00;74.07;101384.53;5058633;28;20517;-83
2023/01/20 09:32:43;;;;;;;0.30;0.30;;;;;;;3.03;73.47;101382.00;5060430;28;20037;-83
2023/01/20 09:35:09;;;;;;;0.60;0.60;;;;;;;3.06;73.90;101388.16;5050816;28;20437;-83
2023/01/20 09:44:07;;;;;;;0.35;0.35;;;;;;;3.18;73.36;101384.91;5042274;28;20087;-82
2023/01/20 09:47:24;;;;;;;0.20;0.20;;;;;;;3.20;73.49;101387.53;5043854;28;20717;-82
2023/01/20 09:53:03;;;;;;;0.47;0.47;;;;;;;3.06;73.70;101395.13;5041290;28;20033;-83
2023/01/20 09:58:47;;;;;;;0.13;0.13;;;;;;;3.00;73.45;101392.41;5089255;27;20343;-81
2023/01/20 10:04:17;;;;;;;0.10;0.10;;;;;;;2.99;73.85;101385.38;5062729;27;1188121;-83
2023/01/20 10:06:48;;;;;;;0.10;0.10;;;;;;;3.01;73.83;101394.16;5069416;28;20051;-81
2023/01/20 10:12:15;;;;;;;0.20;0.20;;;;;;;3.10;73.76;101394.31;5102442;27;20356;-82
2023/01/20 10:14:47;;;;;;;0.15;0.15;;;;;;;3.16;73.66;101409.28;5110001;28;20044;-82
2023/01/20 10:20:03;;;;;;;0.10;0.10;;;;;;;3.41;74.17;101408.00;5066970;28;20919;-81
2023/01/20 10:23:03;;;;;;;0.10;0.10;;;;;;;3.54;74.04;101411.75;5058584;28;20041;-82
2023/01/20 10:25:51;;;;;;;0.10;0.10;;;;;;;3.72;74.06;101416.44;5052033;28;20033;-81
2023/01/20 10:28:32;;;;;;;1.23;1.13;;;;;;;3.76;73.81;101412.13;5050098;28;20031;-82
2023/01/20 10:31:01;;;;;;;0.60;0.60;;;;;;;3.80;73.38;101414.84;5052710;28;20029;-82
2023/01/20 10:33:33;;;;;;;0.13;0.13;;;;;;;3.85;73.51;101412.28;5052435;28;20155;-82
2023/01/20 10:36:00;;;;;;;0.10;0.10;;;;;;;3.80;72.84;101412.22;5052839;28;20462;-81
2023/01/20 10:41:19;;;;;;;0.10;0.10;;;;;;;3.74;72.92;101406.88;5122080;27;20389;-81
2023/01/20 10:43:46;;;;;;;0.40;0.40;;;;;;;3.69;72.54;101408.53;5083928;28;20082;-81
2023/01/20 10:46:52;;;;;;;0.20;0.20;;;;;;;3.76;72.07;101412.13;5080056;28;20055;-81
2023/01/20 10:49:52;;;;;;;0.75;0.63;;;;;;;3.76;72.33;101415.63;5091871;28;20028;-81
2023/01/20 10:52:36;;;;;;;0.10;0.10;;;;;;;3.81;72.33;101421.81;5086137;28;20025;-81
2023/01/20 10:58:26;;;;;;;0.10;0.10;;;;;;;3.91;72.78;101411.50;5128664;27;1162298;-79
2023/01/20 11:00:52;;;;;;;0.68;0.68;;;;;;;3.92;72.74;101419.38;5151010;28;20300;-79
2023/01/20 11:03:20;;;;;;;0.10;0.10;;;;;;;3.91;72.77;101415.00;5143452;28;20099;-79
2023/01/20 11:05:49;;;;;;;0.65;0.65;;;;;;;3.89;72.67;101414.97;5133331;27;20122;-79
2023/01/20 11:10:58;;;;;;;0.65;0.65;;;;;;;3.91;72.58;101419.38;5131412;27;20332;-80
2023/01/20 11:13:25;;;;;;;0.73;0.73;;;;;;;3.91;72.12;101427.25;5120952;28;20559;-81
2023/01/20 11:15:55;;;;;;;0.10;0.10;;;;;;;3.89;72.47;101408.88;5103198;28;20024;-82
2023/01/20 11:18:26;;;;;;;0.20;0.20;;;;;;;3.84;72.29;101408.78;5102372;27;20540;-82
2023/01/20 11:21:00;;;;;;;0.28;0.28;;;;;;;3.78;72.18;101406.06;5102756;28;20027;-81
2023/01/20 11:23:48;;;;;;;0.30;0.30;;;;;;;3.76;72.12;101399.88;5107721;28;20020;-81
2023/01/20 11:26:36;;;;;;;0.10;0.10;;;;;;;3.75;72.13;101405.13;5106422;28;20024;-81
2023/01/20 11:29:26;;;;;;;0.10;0.10;;;;;;;3.72;72.03;101406.81;5101556;28;20035;-82
2023/01/20 11:31:54;;;;;;;0.10;0.10;;;;;;;3.62;71.96;101398.78;5093188;28;20678;-82
2023/01/20 11:34:32;;;;;;;0.10;0.10;;;;;;;3.56;72.35;101389.97;5100059;28;20191;-82
2023/01/20 11:40:00;;;;;;;0.30;0.30;;;;;;;3.55;72.57;101421.38;5111464;27;20384;-81
2023/01/20 11:42:29;;;;;;;0.17;0.17;;;;;;;3.54;72.60;101412.63;5092353;28;20024;-83
2023/01/20 11:45:00;;;;;;;0.10;0.10;;;;;;;3.55;72.73;101408.25;5083358;28;20033;-82
2023/01/20 11:47:30;;;;;;;0.25;0.25;;;;;;;3.61;72.42;101417.97;5092130;28;20032;-82
2023/01/20 11:52:43;;;;;;;1.08;1.00;;;;;;;3.60;72.54;101414.50;5063659;28;20427;-83
2023/01/20 11:58:00;;;;;;;0.10;0.10;;;;;;;3.66;72.52;101416.31;5105090;27;20389;-83
2023/01/20 12:00:43;;;;;;;0.10;0.10;;;;;;;3.71;73.06;101425.16;5084617;28;20043;-84
2023/01/20 12:06:11;;;;;;;0.10;0.10;;;;;;;3.75;72.99;101424.38;5097205;27;20138;-83
2023/01/20 12:09:14;;;;;;;0.20;0.20;;;;;;;3.77;72.68;101434.88;5102601;28;20079;-81
2023/01/20 12:11:56;;;;;;;0.10;0.10;;;;;;;3.78;73.06;101436.63;5101069;27;20145;-81
2023/01/20 12:14:30;;;;;;;0.10;0.10;;;;;;;3.74;73.04;101446.19;5104387;28;20016;-81
2023/01/20 12:17:14;;;;;;;0.52;0.52;;;;;;;3.70;72.90;101445.25;5116256;28;20050;-83
2023/01/20 12:20:04;;;;;;;0.15;0.15;;;;;;;3.61;72.78;101441.56;5093606;28;20111;-83
2023/01/20 12:22:54;;;;;;;0.17;0.17;;;;;;;3.59;72.96;101448.50;5108084;28;20028;-82
2023/01/20 12:25:26;;;;;;;0.20;0.20;;;;;;;3.52;73.01;101448.38;5113574;27;20496;-83
2023/01/20 12:27:57;;;;;;;0.10;0.10;;;;;;;3.53;72.64;101451.91;5102898;28;20035;-83
2023/01/20 12:30:46;;;;;;;0.20;0.20;;;;;;;3.61;73.03;101438.94;5103879;28;20109;-83
2023/01/20 12:33:19;;;;;;;0.32;0.32;;;;;;;3.60;72.84;101437.19;5111507;27;20169;-82
2023/01/20 12:38:40;;;;;;;0.10;0.10;;;;;;;3.65;73.02;101439.03;5106255;27;20401;-82
2023/01/20 12:41:23;;;;;;;0.22;0.22;;;;;;;3.66;73.33;101434.66;5093830;28;20459;-82
2023/01/20 12:57:43;;;;;;;0.38;0.38;;;;;;;3.66;73.18;101430.28;5088133;27;20141;-82
2023/01/20 13:03:47;;;;;;;0.35;0.35;;;;;;;3.82;72.68;101439.31;5120379;27;20899;-84
2023/01/20 13:09:29;;;;;;;0.10;0.10;;;;;;;3.91;72.61;101454.31;5111092;27;20365;-82
2023/01/20 13:14:54;;;;;;;0.10;0.10;;;;;;;4.01;72.75;101447.50;5067846;27;20406;-82
2023/01/20 13:20:03;;;;;;;0.10;0.10;;;;;;;4.12;72.73;101447.69;5103422;27;20363;-82
2023/01/20 13:22:30;;;;;;;0.20;0.20;;;;;;;4.17;73.14;101441.63;5093899;28;20055;-82